• Join FlightAware (Why Join?)
  • Login
  • US Flag 
08:18PM EDT


 

Airport Tracker/Info


-or-


 

Live Flight TrackerFlight Track Log ✈ UAL1116 ✈ 29-Dec-2013 ✈ KSFO - KPDX

Flight Track Log - Related Links

Times and Time Zones

All times are in EST time to prevent confusion due to time zone crossing. See the UAL1116 flight status page for this flight to view local times or setup timezone preferences in your user account.

Time Position Orientation Groundspeed Altitude Reporting Facility
EST Latitude Longitude Course Direction KTS MPH feet Rate Location/Type
12:38AM 37.6160 -122.3750 31° Northeast 135 155  Level FlightAware ADS-B
12:38AM 37.6268 -122.3670 30° Northeast 178 205 1,260 Level FlightAware ADS-B
12:38AM 37.6318 -122.3640 25° Northeast 169 194 500 3,840 Climbing FlightAware ADS-B
12:38AM 37.6365 -122.3600 34° Northeast 166 191 900 2,700 Climbing FlightAware ADS-B
12:38AM 37.6388 -122.3580 35° Northeast 169 194 1,000 1,980 Climbing FlightAware ADS-B
12:38AM 37.6455 -122.3490 47° Northeast 182 209 1,400 1,920 Climbing FlightAware ADS-B
12:39AM 37.6539 -122.3390 43° Northeast 194 223 1,800 1,860 Climbing FlightAware ADS-B
12:39AM 37.6594 -122.3310 49° Northeast 204 235 2,100 2,580 Climbing FlightAware ADS-B
12:39AM 37.6696 -122.3180 45° Northeast 217 250 2,800 2,460 Climbing FlightAware ADS-B
12:39AM 37.6809 -122.3020 48° Northeast 230 265 3,400 2,040 Climbing FlightAware ADS-B
12:40AM 37.6931 -122.2850 48° Northeast 256 295 3,900 2,280 Climbing FlightAware ADS-B
12:40AM 37.7014 -122.2730 49° Northeast 264 304 4,400 3,000 Climbing FlightAware ADS-B
12:40AM 37.7048 -122.2700 35° Northeast 266 306 4,600 2,520 Climbing FlightAware ADS-B
12:40AM 37.7079 -122.2670 37° Northeast 269 310 4,700 3,720 Climbing FlightAware ADS-B
12:40AM 37.7469 -122.2600 North 273 314 6,800 3,540 Climbing FlightAware ADS-B
12:41AM 37.7655 -122.2620 355° North 278 320 7,500 2,760 Climbing FlightAware ADS-B
12:42AM 37.8734 -122.2810 352° North 297 342 11,300 2,460 Climbing FlightAware ADS-B
12:42AM 37.9188 -122.2850 356° North 343 395 12,100 2,280 Climbing FlightAware ADS-B
12:44AM 38.0236 -122.2910 357° North 361 415 14,900 2,520 Climbing FlightAware ADS-B
12:44AM 38.1053 -122.2972 357° North 365 420 17,200 2,460 Climbing Oakland Center
12:45AM 38.2092 -122.3042 357° North 375 432 19,700 2,400 Climbing Oakland Center
12:47AM 38.3136 -122.3119 357° North 378 435 22,100 2,100 Climbing Oakland Center
12:48AM 38.4219 -122.3200 357° North 389 448 24,000 1,620 Climbing Oakland Center
12:49AM 38.5328 -122.3269 357° North 399 459 25,500 1,380 Climbing Oakland Center
12:50AM 38.6503 -122.3347 357° North 420 483 26,900 1,620 Climbing Oakland Center
12:51AM 38.7906 -122.3453 357° North 430 495 28,800 1,860 Climbing Oakland Center
12:52AM 38.9106 -122.3539 357° North 431 496 30,700 1,620 Climbing Oakland Center
12:53AM 39.0286 -122.3622 357° North 425 489 32,200 1,380 Climbing Oakland Center
12:54AM 39.1458 -122.3714 357° North 422 486 33,600 1,320 Climbing Oakland Center
12:55AM 39.2631 -122.3778 358° North 422 486 34,900 1,140 Climbing Oakland Center
12:56AM 39.3778 -122.3867 357° North 415 478 36,000 540 Climbing Oakland Center
12:57AM 39.4986 -122.3964 356° North 419 482 36,000  Level Oakland Center
12:58AM 39.6142 -122.4039 357° North 417 480 36,000  Level Oakland Center
01:03AM 40.1905 -122.4453 357° North 408 470 36,000  Level FlightAware ADS-B (KAHC)
01:05AM 40.4913 -122.4673 357° North 410 472 36,000  Level FlightAware ADS-B (KAHC)
01:06AM 40.5672 -122.4730 357° North 410 472 36,000  Level FlightAware ADS-B (KAHC)
01:07AM 40.6997 -122.4828 357° North 410 472 36,000  Level FlightAware ADS-B (KAHC)
01:08AM 40.7643 -122.4876 357° North 409 471 36,000  Level FlightAware ADS-B (KAHC)
01:08AM 40.8297 -122.4936 357° North 408 470 36,000  Level Seattle Center
01:09AM 40.9422 -122.5028 356° North 406 467 36,000  Level Seattle Center
01:10AM 41.0558 -122.5125 356° North 408 470 36,000  Level Seattle Center
01:11AM 41.1683 -122.5206 357° North 408 470 36,000  Level Seattle Center
01:12AM 41.3039 -122.5303 357° North 407 468 36,000  Level Seattle Center
01:14AM 41.4064 -122.5378 357° North 407 468 36,000  Level Seattle Center
01:15AM 41.5208 -122.5464 357° North 411 473 36,000  Level Seattle Center
01:16AM 41.6347 -122.5539 357° North 410 472 36,000  Level Seattle Center
01:17AM 41.7483 -122.5622 357° North 408 470 36,000  Level Seattle Center
01:18AM 41.8617 -122.5703 357° North 408 470 36,000  Level Seattle Center
01:19AM 41.9744 -122.5792 357° North 404 465 36,000  Level Seattle Center
01:20AM 42.0878 -122.5892 356° North 405 466 36,000  Level Seattle Center
01:21AM 42.2000 -122.5972 357° North 402 463 36,000  Level Seattle Center
01:22AM 42.3131 -122.6033 358° North 402 463 36,000  Level Seattle Center
01:23AM 42.4244 -122.6125 357° North 400 460 36,000  Level Seattle Center
01:24AM 42.5361 -122.6206 357° North 399 459 36,000  Level Seattle Center
01:25AM 42.6461 -122.6300 356° North 397 457 36,000  Level Seattle Center
01:26AM 42.7625 -122.6392 357° North 395 455 36,000  Level Seattle Center
01:27AM 42.8742 -122.6475 357° North 399 459 36,000  Level Seattle Center
01:28AM 42.9853 -122.6569 356° North 399 459 36,000  Level Seattle Center
01:29AM 43.0964 -122.6653 357° North 399 459 36,000  Level Seattle Center
01:30AM 43.2067 -122.6739 357° North 395 455 36,000  Level Seattle Center
01:31AM 43.3178 -122.6842 356° North 397 457 36,000  Level Seattle Center
01:32AM 43.4275 -122.6933 357° North 396 456 36,000  Level Seattle Center
01:33AM 43.5400 -122.7008 357° North 400 460 36,000  Level Seattle Center
01:34AM 43.6506 -122.7100 357° North 399 459 36,000 -300 Level Seattle Center
01:35AM 43.7628 -122.7197 356° North 403 464 35,400 -1,260 Descending Seattle Center
01:36AM 43.8739 -122.7283 357° North 402 463 33,500 -2,280 Descending Seattle Center
01:37AM 43.9847 -122.7389 356° North 402 463 30,900 -2,340 Descending Seattle Center
01:38AM 44.0942 -122.7469 357° North 396 456 28,800 -2,040 Descending Seattle Center
01:39AM 44.2014 -122.7472 360° North 389 448 26,800 -2,340 Descending Seattle Center
01:40AM 44.3314 -122.7344 North 393 452 24,200 -2,220 Descending Seattle Center
01:41AM 44.4200 -122.7253 North 389 448 22,400 -1,920 Descending Seattle Center
01:42AM 44.5256 -122.7156 North 384 442 20,400 -1,920 Descending Seattle Center
01:43AM 44.6300 -122.7058 North 379 436 18,600 -1,920 Descending Seattle Center
01:44AM 44.7483 -122.6931 North 363 418 16,600 -1,920 Descending Seattle Center
01:44AM 44.7703 -122.6925 North 355 409 16,200 -1,980 Descending Seattle Center
01:44AM 44.8022 -122.6889 North 356 410 15,500 -2,400 Descending Seattle Center
01:45AM 44.8478 -122.6839 North 360 414 14,400 -2,220 Descending Seattle Center
01:45AM 44.9019 -122.6792 North 361 415 13,300 -2,100 Descending Seattle Center
01:46AM 44.9450 -122.6739 North 356 410 12,300 -1,680 Descending Seattle Center
01:46AM 45.0019 -122.6694 North 336 387 11,600 -1,320 Descending Seattle Center
01:47AM 45.0344 -122.6633 North 324 373 11,000 -1,200 Descending Seattle Center
01:47AM 45.0867 -122.6597 North 307 353 10,400 -900 Descending Seattle Center
01:48AM 45.1181 -122.6547 North 299 344 10,100 -1,020 Descending Seattle Center
01:48AM 45.1653 -122.6525 North 275 316 9,400 -1,380 Descending Seattle Center
01:49AM 45.1936 -122.6481 North 273 314 8,700 -1,500 Descending Seattle Center
01:49AM 45.2414 -122.6431 North 271 312 7,900 -1,440 Descending Seattle Center
01:50AM 45.2736 -122.6558 344° North 269 310 7,300 -1,500 Descending Seattle Center
01:50AM 45.3119 -122.6819 334° Northwest 271 312 6,400 -1,500 Descending Seattle Center
01:51AM 45.3428 -122.6989 339° North 272 313 5,800 -1,380 Descending Seattle Center
01:51AM 45.3806 -122.7217 337° Northwest 270 311 5,000 -1,320 Descending Seattle Center
01:52AM 45.4117 -122.7406 337° Northwest 270 311 4,500 -1,020 Descending Seattle Center
01:52AM 45.4472 -122.7622 337° Northwest 264 304 4,000 -540 Descending Seattle Center
01:53AM 45.4781 -122.7808 337° Northwest 261 300 4,000  Level Seattle Center
01:53AM 45.5114 -122.8011 337° Northwest 234 269 4,000  Level Seattle Center
01:54AM 45.5378 -122.8156 339° North 232 267 4,000  Level Seattle Center
01:54AM 45.5703 -122.8358 336° Northwest 223 257 4,000 60 Level Seattle Center
01:55AM 45.5967 -122.8497 340° North 228 262 4,100  Climbing Seattle Center
01:55AM 45.6286 -122.8678 338° Northwest 195 224 4,000 -540 Descending Seattle Center
01:56AM 45.6458 -122.8575 23° Northeast 193 222 3,600 -1,020 Descending Seattle Center
01:56AM 45.6692 -122.8328 37° Northeast 166 191 3,000 -900 Descending Seattle Center
01:57AM 45.6711 -122.8064 84° East 179 206 2,700 -540 Descending Seattle Center
01:57AM 45.6603 -122.7653 111° Southeast 178 205 2,500 -300 Descending Seattle Center
01:58AM 45.6514 -122.7417 118° Southeast 179 206 2,400 -600 Descending Seattle Center
01:58AM 45.6369 -122.7039 119° Southeast 175 201 1,900 -900 Descending Seattle Center
01:59AM 45.6286 -122.6825 119° Southeast 172 198 1,500 -900 Descending Seattle Center
01:59AM 45.6156 -122.6508 121° Southeast 154 177 1,000 -840 Descending Seattle Center
02:00AM 45.6089 -122.6314 116° Southeast 152 175 700 -900 Descending Seattle Center
02:00AM 45.5967 -122.6000 119° Southeast 140 161 100 -1,020 Descending Seattle Center